sensor_id;sensor_type;location;lat;lon;timestamp;P1;durP1;ratioP1;P2;durP2;ratioP2
77117;SDS011;66072;50.238;19.228;2023-01-28T00:00:52;17.80;;;7.40;;
77117;SDS011;66072;50.238;19.228;2023-01-28T00:03:24;20.80;;;10.30;;
77117;SDS011;66072;50.238;19.228;2023-01-28T00:05:51;20.50;;;10.50;;
77117;SDS011;66072;50.238;19.228;2023-01-28T00:08:28;24.00;;;10.10;;
77117;SDS011;66072;50.238;19.228;2023-01-28T00:11:00;17.80;;;8.70;;
77117;SDS011;66072;50.238;19.228;2023-01-28T00:13:29;16.80;;;9.30;;
77117;SDS011;66072;50.238;19.228;2023-01-28T00:15:58;19.00;;;9.00;;
77117;SDS011;66072;50.238;19.228;2023-01-28T00:18:29;19.20;;;9.10;;
77117;SDS011;66072;50.238;19.228;2023-01-28T00:20:58;22.20;;;9.10;;
77117;SDS011;66072;50.238;19.228;2023-01-28T00:23:47;23.00;;;10.80;;
77117;SDS011;66072;50.238;19.228;2023-01-28T00:26:18;20.70;;;9.30;;
77117;SDS011;66072;50.238;19.228;2023-01-28T00:28:46;16.30;;;9.40;;
77117;SDS011;66072;50.238;19.228;2023-01-28T00:31:15;14.60;;;7.50;;
77117;SDS011;66072;50.238;19.228;2023-01-28T00:33:46;22.30;;;9.90;;
77117;SDS011;66072;50.238;19.228;2023-01-28T00:36:15;17.90;;;8.20;;
77117;SDS011;66072;50.238;19.228;2023-01-28T00:38:48;20.70;;;9.20;;
77117;SDS011;66072;50.238;19.228;2023-01-28T00:41:17;17.20;;;8.10;;
77117;SDS011;66072;50.238;19.228;2023-01-28T00:43:46;18.70;;;7.60;;
77117;SDS011;66072;50.238;19.228;2023-01-28T00:46:15;17.10;;;9.30;;
77117;SDS011;66072;50.238;19.228;2023-01-28T00:48:44;15.80;;;7.80;;
77117;SDS011;66072;50.238;19.228;2023-01-28T00:51:13;16.80;;;7.80;;
77117;SDS011;66072;50.238;19.228;2023-01-28T00:53:42;19.10;;;8.00;;
77117;SDS011;66072;50.238;19.228;2023-01-28T00:56:14;18.50;;;9.10;;
77117;SDS011;66072;50.238;19.228;2023-01-28T00:58:44;16.10;;;7.70;;
77117;SDS011;66072;50.238;19.228;2023-01-28T01:01:16;16.80;;;7.90;;
77117;SDS011;66072;50.238;19.228;2023-01-28T01:03:46;19.50;;;8.60;;
77117;SDS011;66072;50.238;19.228;2023-01-28T01:06:14;16.40;;;8.30;;
77117;SDS011;66072;50.238;19.228;2023-01-28T01:08:42;13.70;;;6.40;;
77117;SDS011;66072;50.238;19.228;2023-01-28T01:11:10;14.40;;;7.90;;
77117;SDS011;66072;50.238;19.228;2023-01-28T01:13:38;18.80;;;7.80;;
77117;SDS011;66072;50.238;19.228;2023-01-28T01:16:07;17.30;;;8.30;;
77117;SDS011;66072;50.238;19.228;2023-01-28T01:18:37;18.10;;;8.20;;
77117;SDS011;66072;50.238;19.228;2023-01-28T01:21:09;21.40;;;9.60;;
77117;SDS011;66072;50.238;19.228;2023-01-28T01:23:38;22.50;;;10.10;;
77117;SDS011;66072;50.238;19.228;2023-01-28T01:26:07;17.40;;;8.60;;
77117;SDS011;66072;50.238;19.228;2023-01-28T01:28:35;22.20;;;9.00;;
77117;SDS011;66072;50.238;19.228;2023-01-28T01:31:05;17.10;;;8.20;;
77117;SDS011;66072;50.238;19.228;2023-01-28T01:33:34;21.40;;;8.80;;
77117;SDS011;66072;50.238;19.228;2023-01-28T01:36:02;15.00;;;7.00;;
77117;SDS011;66072;50.238;19.228;2023-01-28T01:38:30;19.40;;;9.40;;
77117;SDS011;66072;50.238;19.228;2023-01-28T01:40:58;25.40;;;11.30;;
77117;SDS011;66072;50.238;19.228;2023-01-28T01:43:46;17.60;;;8.50;;
77117;SDS011;66072;50.238;19.228;2023-01-28T01:46:17;18.60;;;8.20;;
77117;SDS011;66072;50.238;19.228;2023-01-28T01:48:52;22.20;;;9.20;;
77117;SDS011;66072;50.238;19.228;2023-01-28T01:51:23;20.70;;;8.80;;
77117;SDS011;66072;50.238;19.228;2023-01-28T01:53:54;20.50;;;8.00;;
77117;SDS011;66072;50.238;19.228;2023-01-28T01:56:25;18.30;;;9.40;;
77117;SDS011;66072;50.238;19.228;2023-01-28T01:58:56;18.60;;;9.30;;
77117;SDS011;66072;50.238;19.228;2023-01-28T02:01:25;21.50;;;10.30;;
77117;SDS011;66072;50.238;19.228;2023-01-28T02:04:00;23.10;;;10.00;;
77117;SDS011;66072;50.238;19.228;2023-01-28T02:06:35;20.00;;;9.10;;
77117;SDS011;66072;50.238;19.228;2023-01-28T02:11:59;19.00;;;8.60;;
77117;SDS011;66072;50.238;19.228;2023-01-28T02:14:30;19.20;;;9.30;;
77117;SDS011;66072;50.238;19.228;2023-01-28T02:17:02;16.60;;;8.50;;
77117;SDS011;66072;50.238;19.228;2023-01-28T02:19:37;17.70;;;8.70;;
77117;SDS011;66072;50.238;19.228;2023-01-28T02:22:13;21.10;;;10.00;;
77117;SDS011;66072;50.238;19.228;2023-01-28T02:30:23;17.80;;;8.60;;
77117;SDS011;66072;50.238;19.228;2023-01-28T02:32:59;21.10;;;9.10;;
77117;SDS011;66072;50.238;19.228;2023-01-28T02:35:35;17.20;;;8.00;;
77117;SDS011;66072;50.238;19.228;2023-01-28T02:38:07;17.70;;;8.60;;
77117;SDS011;66072;50.238;19.228;2023-01-28T02:40:38;19.90;;;8.80;;
77117;SDS011;66072;50.238;19.228;2023-01-28T02:43:08;16.10;;;7.40;;
77117;SDS011;66072;50.238;19.228;2023-01-28T02:45:36;15.00;;;8.20;;
77117;SDS011;66072;50.238;19.228;2023-01-28T02:48:03;16.40;;;8.50;;
77117;SDS011;66072;50.238;19.228;2023-01-28T02:50:43;21.80;;;9.40;;
77117;SDS011;66072;50.238;19.228;2023-01-28T02:53:22;19.40;;;9.40;;
77117;SDS011;66072;50.238;19.228;2023-01-28T02:56:06;18.00;;;8.40;;
77117;SDS011;66072;50.238;19.228;2023-01-28T02:58:43;19.00;;;9.20;;
77117;SDS011;66072;50.238;19.228;2023-01-28T03:01:30;19.00;;;9.00;;
77117;SDS011;66072;50.238;19.228;2023-01-28T03:06:40;19.20;;;10.10;;
77117;SDS011;66072;50.238;19.228;2023-01-28T03:09:12;19.70;;;9.30;;
77117;SDS011;66072;50.238;19.228;2023-01-28T03:11:42;22.90;;;9.60;;
77117;SDS011;66072;50.238;19.228;2023-01-28T03:14:15;19.10;;;10.50;;
77117;SDS011;66072;50.238;19.228;2023-01-28T03:16:45;17.30;;;9.00;;
77117;SDS011;66072;50.238;19.228;2023-01-28T03:19:14;22.30;;;9.70;;
77117;SDS011;66072;50.238;19.228;2023-01-28T03:21:43;18.90;;;9.80;;
77117;SDS011;66072;50.238;19.228;2023-01-28T03:24:15;18.70;;;9.30;;
77117;SDS011;66072;50.238;19.228;2023-01-28T03:26:55;20.00;;;9.40;;
77117;SDS011;66072;50.238;19.228;2023-01-28T03:29:40;20.40;;;8.90;;
77117;SDS011;66072;50.238;19.228;2023-01-28T03:32:10;19.70;;;9.70;;
77117;SDS011;66072;50.238;19.228;2023-01-28T03:34:39;25.10;;;8.90;;
77117;SDS011;66072;50.238;19.228;2023-01-28T03:37:07;15.70;;;9.60;;
77117;SDS011;66072;50.238;19.228;2023-01-28T03:39:36;21.40;;;9.60;;
77117;SDS011;66072;50.238;19.228;2023-01-28T03:42:08;19.90;;;8.90;;
77117;SDS011;66072;50.238;19.228;2023-01-28T03:44:37;19.80;;;8.90;;
77117;SDS011;66072;50.238;19.228;2023-01-28T03:47:05;17.00;;;8.30;;
77117;SDS011;66072;50.238;19.228;2023-01-28T03:49:32;20.60;;;8.90;;
77117;SDS011;66072;50.238;19.228;2023-01-28T03:52:00;17.20;;;8.70;;
77117;SDS011;66072;50.238;19.228;2023-01-28T03:54:28;21.30;;;9.00;;
77117;SDS011;66072;50.238;19.228;2023-01-28T03:56:55;17.70;;;9.40;;
77117;SDS011;66072;50.238;19.228;2023-01-28T03:59:23;20.40;;;9.60;;
77117;SDS011;66072;50.238;19.228;2023-01-28T04:01:51;15.00;;;8.40;;
77117;SDS011;66072;50.238;19.228;2023-01-28T04:04:18;18.50;;;9.00;;
77117;SDS011;66072;50.238;19.228;2023-01-28T04:06:46;16.90;;;8.00;;
77117;SDS011;66072;50.238;19.228;2023-01-28T04:09:14;18.40;;;8.70;;
77117;SDS011;66072;50.238;19.228;2023-01-28T04:11:41;17.50;;;9.20;;
77117;SDS011;66072;50.238;19.228;2023-01-28T04:14:09;17.10;;;8.00;;
77117;SDS011;66072;50.238;19.228;2023-01-28T04:16:36;18.50;;;8.90;;
77117;SDS011;66072;50.238;19.228;2023-01-28T04:19:04;18.70;;;8.50;;
77117;SDS011;66072;50.238;19.228;2023-01-28T04:21:32;20.30;;;9.30;;
77117;SDS011;66072;50.238;19.228;2023-01-28T04:24:00;17.10;;;9.00;;
77117;SDS011;66072;50.238;19.228;2023-01-28T04:26:28;15.30;;;7.30;;
77117;SDS011;66072;50.238;19.228;2023-01-28T04:28:55;16.50;;;8.60;;
77117;SDS011;66072;50.238;19.228;2023-01-28T04:31:23;17.50;;;8.40;;
77117;SDS011;66072;50.238;19.228;2023-01-28T04:33:51;20.30;;;9.40;;
77117;SDS011;66072;50.238;19.228;2023-01-28T04:36:18;16.80;;;8.10;;
77117;SDS011;66072;50.238;19.228;2023-01-28T04:38:46;19.50;;;9.10;;
77117;SDS011;66072;50.238;19.228;2023-01-28T04:41:14;18.50;;;8.70;;
77117;SDS011;66072;50.238;19.228;2023-01-28T04:43:41;16.50;;;8.30;;
77117;SDS011;66072;50.238;19.228;2023-01-28T04:46:12;19.90;;;9.80;;
77117;SDS011;66072;50.238;19.228;2023-01-28T04:48:39;17.80;;;8.20;;
77117;SDS011;66072;50.238;19.228;2023-01-28T04:51:07;19.10;;;10.20;;
77117;SDS011;66072;50.238;19.228;2023-01-28T04:53:35;21.10;;;9.60;;
77117;SDS011;66072;50.238;19.228;2023-01-28T04:56:02;18.70;;;8.90;;
77117;SDS011;66072;50.238;19.228;2023-01-28T04:58:30;20.30;;;9.30;;
77117;SDS011;66072;50.238;19.228;2023-01-28T05:00:58;19.80;;;9.60;;
77117;SDS011;66072;50.238;19.228;2023-01-28T05:03:26;21.40;;;10.30;;
77117;SDS011;66072;50.238;19.228;2023-01-28T05:05:54;18.80;;;8.80;;
77117;SDS011;66072;50.238;19.228;2023-01-28T05:08:22;18.30;;;9.10;;
77117;SDS011;66072;50.238;19.228;2023-01-28T05:10:49;25.00;;;10.70;;
77117;SDS011;66072;50.238;19.228;2023-01-28T05:13:17;20.00;;;9.80;;
77117;SDS011;66072;50.238;19.228;2023-01-28T05:15:49;22.00;;;9.70;;
77117;SDS011;66072;50.238;19.228;2023-01-28T05:18:17;20.90;;;8.70;;
77117;SDS011;66072;50.238;19.228;2023-01-28T05:20:45;20.40;;;8.80;;
77117;SDS011;66072;50.238;19.228;2023-01-28T05:23:13;18.50;;;9.20;;
77117;SDS011;66072;50.238;19.228;2023-01-28T05:25:41;16.20;;;8.30;;
77117;SDS011;66072;50.238;19.228;2023-01-28T05:28:09;19.40;;;9.60;;
77117;SDS011;66072;50.238;19.228;2023-01-28T05:30:37;22.40;;;10.00;;
77117;SDS011;66072;50.238;19.228;2023-01-28T05:33:05;22.10;;;10.00;;
77117;SDS011;66072;50.238;19.228;2023-01-28T05:35:33;19.10;;;9.40;;
77117;SDS011;66072;50.238;19.228;2023-01-28T05:38:01;16.60;;;8.00;;
77117;SDS011;66072;50.238;19.228;2023-01-28T05:40:28;20.30;;;9.90;;
77117;SDS011;66072;50.238;19.228;2023-01-28T05:42:56;20.20;;;9.00;;
77117;SDS011;66072;50.238;19.228;2023-01-28T05:45:24;14.80;;;7.60;;
77117;SDS011;66072;50.238;19.228;2023-01-28T05:47:51;19.40;;;10.00;;
77117;SDS011;66072;50.238;19.228;2023-01-28T05:50:19;18.40;;;8.40;;
77117;SDS011;66072;50.238;19.228;2023-01-28T05:52:47;16.50;;;8.40;;
77117;SDS011;66072;50.238;19.228;2023-01-28T05:55:14;16.20;;;8.10;;
77117;SDS011;66072;50.238;19.228;2023-01-28T05:57:42;18.40;;;8.40;;
77117;SDS011;66072;50.238;19.228;2023-01-28T06:00:10;16.70;;;7.70;;
77117;SDS011;66072;50.238;19.228;2023-01-28T06:02:38;23.90;;;9.90;;
77117;SDS011;66072;50.238;19.228;2023-01-28T06:05:06;20.20;;;9.10;;
77117;SDS011;66072;50.238;19.228;2023-01-28T06:07:34;21.50;;;9.80;;
77117;SDS011;66072;50.238;19.228;2023-01-28T06:10:02;21.50;;;10.00;;
77117;SDS011;66072;50.238;19.228;2023-01-28T06:12:30;17.70;;;9.10;;
77117;SDS011;66072;50.238;19.228;2023-01-28T06:14:58;19.70;;;9.70;;
77117;SDS011;66072;50.238;19.228;2023-01-28T06:17:25;18.50;;;9.00;;
77117;SDS011;66072;50.238;19.228;2023-01-28T06:19:53;17.30;;;8.40;;
77117;SDS011;66072;50.238;19.228;2023-01-28T06:22:21;19.80;;;8.50;;
77117;SDS011;66072;50.238;19.228;2023-01-28T06:24:48;18.60;;;8.90;;
77117;SDS011;66072;50.238;19.228;2023-01-28T06:27:16;20.30;;;10.00;;
77117;SDS011;66072;50.238;19.228;2023-01-28T06:29:44;16.90;;;8.50;;
77117;SDS011;66072;50.238;19.228;2023-01-28T06:32:11;23.60;;;9.80;;
77117;SDS011;66072;50.238;19.228;2023-01-28T06:34:39;21.60;;;9.80;;
77117;SDS011;66072;50.238;19.228;2023-01-28T06:37:07;19.60;;;8.10;;
77117;SDS011;66072;50.238;19.228;2023-01-28T06:39:34;21.40;;;10.50;;
77117;SDS011;66072;50.238;19.228;2023-01-28T06:42:02;18.90;;;9.20;;
77117;SDS011;66072;50.238;19.228;2023-01-28T06:44:30;17.20;;;8.20;;
77117;SDS011;66072;50.238;19.228;2023-01-28T06:46:58;22.20;;;9.40;;
77117;SDS011;66072;50.238;19.228;2023-01-28T06:49:25;17.40;;;8.30;;
77117;SDS011;66072;50.238;19.228;2023-01-28T06:51:53;14.00;;;7.50;;
77117;SDS011;66072;50.238;19.228;2023-01-28T06:54:20;18.00;;;9.00;;
77117;SDS011;66072;50.238;19.228;2023-01-28T06:56:48;18.00;;;8.70;;
77117;SDS011;66072;50.238;19.228;2023-01-28T06:59:16;20.60;;;9.50;;
77117;SDS011;66072;50.238;19.228;2023-01-28T07:01:43;21.10;;;9.20;;
77117;SDS011;66072;50.238;19.228;2023-01-28T07:04:11;23.10;;;10.00;;
77117;SDS011;66072;50.238;19.228;2023-01-28T07:06:39;21.30;;;9.30;;
77117;SDS011;66072;50.238;19.228;2023-01-28T07:09:06;21.90;;;9.60;;
77117;SDS011;66072;50.238;19.228;2023-01-28T07:11:34;20.40;;;10.00;;
77117;SDS011;66072;50.238;19.228;2023-01-28T07:14:02;19.60;;;10.00;;
77117;SDS011;66072;50.238;19.228;2023-01-28T07:16:29;25.10;;;11.30;;
77117;SDS011;66072;50.238;19.228;2023-01-28T07:18:57;23.10;;;11.30;;
77117;SDS011;66072;50.238;19.228;2023-01-28T07:21:25;22.20;;;11.20;;
77117;SDS011;66072;50.238;19.228;2023-01-28T07:23:52;23.80;;;10.70;;
77117;SDS011;66072;50.238;19.228;2023-01-28T07:26:23;17.70;;;8.60;;
77117;SDS011;66072;50.238;19.228;2023-01-28T07:28:50;25.50;;;11.80;;
77117;SDS011;66072;50.238;19.228;2023-01-28T07:31:18;23.10;;;10.80;;
77117;SDS011;66072;50.238;19.228;2023-01-28T07:33:46;22.30;;;10.60;;
77117;SDS011;66072;50.238;19.228;2023-01-28T07:36:14;21.80;;;10.80;;
77117;SDS011;66072;50.238;19.228;2023-01-28T07:38:41;21.70;;;11.40;;
77117;SDS011;66072;50.238;19.228;2023-01-28T07:41:09;24.10;;;12.10;;
77117;SDS011;66072;50.238;19.228;2023-01-28T07:43:37;22.20;;;10.30;;
77117;SDS011;66072;50.238;19.228;2023-01-28T07:46:04;24.50;;;11.50;;
77117;SDS011;66072;50.238;19.228;2023-01-28T07:48:32;15.90;;;8.70;;
77117;SDS011;66072;50.238;19.228;2023-01-28T07:51:00;15.60;;;8.50;;
77117;SDS011;66072;50.238;19.228;2023-01-28T07:53:27;17.90;;;9.10;;
77117;SDS011;66072;50.238;19.228;2023-01-28T07:56:01;14.40;;;7.70;;
77117;SDS011;66072;50.238;19.228;2023-01-28T07:58:29;18.60;;;9.80;;
77117;SDS011;66072;50.238;19.228;2023-01-28T08:00:57;18.70;;;9.30;;
77117;SDS011;66072;50.238;19.228;2023-01-28T08:03:26;19.10;;;9.00;;
77117;SDS011;66072;50.238;19.228;2023-01-28T08:05:54;15.20;;;8.40;;
77117;SDS011;66072;50.238;19.228;2023-01-28T08:08:23;18.30;;;8.20;;
77117;SDS011;66072;50.238;19.228;2023-01-28T08:10:52;12.60;;;7.00;;
77117;SDS011;66072;50.238;19.228;2023-01-28T08:13:20;15.60;;;8.80;;
77117;SDS011;66072;50.238;19.228;2023-01-28T08:15:48;15.20;;;8.20;;
77117;SDS011;66072;50.238;19.228;2023-01-28T08:18:16;21.90;;;10.50;;
77117;SDS011;66072;50.238;19.228;2023-01-28T08:20:43;14.40;;;7.80;;
77117;SDS011;66072;50.238;19.228;2023-01-28T08:25:44;14.10;;;6.70;;
77117;SDS011;66072;50.238;19.228;2023-01-28T08:28:13;16.30;;;8.40;;
77117;SDS011;66072;50.238;19.228;2023-01-28T08:30:42;11.50;;;6.20;;
77117;SDS011;66072;50.238;19.228;2023-01-28T08:33:11;13.40;;;7.70;;
77117;SDS011;66072;50.238;19.228;2023-01-28T08:38:09;14.50;;;7.30;;
77117;SDS011;66072;50.238;19.228;2023-01-28T08:40:38;18.90;;;8.00;;
77117;SDS011;66072;50.238;19.228;2023-01-28T08:43:06;14.10;;;8.20;;
77117;SDS011;66072;50.238;19.228;2023-01-28T08:45:34;15.90;;;8.40;;
77117;SDS011;66072;50.238;19.228;2023-01-28T08:48:03;13.90;;;7.20;;
77117;SDS011;66072;50.238;19.228;2023-01-28T08:50:36;16.10;;;8.20;;
77117;SDS011;66072;50.238;19.228;2023-01-28T08:53:06;17.50;;;7.70;;
77117;SDS011;66072;50.238;19.228;2023-01-28T08:55:37;15.90;;;8.40;;
77117;SDS011;66072;50.238;19.228;2023-01-28T08:58:05;15.00;;;7.80;;
77117;SDS011;66072;50.238;19.228;2023-01-28T09:00:34;13.30;;;8.10;;
77117;SDS011;66072;50.238;19.228;2023-01-28T09:03:02;11.70;;;6.80;;
77117;SDS011;66072;50.238;19.228;2023-01-28T09:05:33;15.10;;;7.70;;
77117;SDS011;66072;50.238;19.228;2023-01-28T09:08:05;12.30;;;6.60;;
77117;SDS011;66072;50.238;19.228;2023-01-28T09:10:35;15.90;;;7.60;;
77117;SDS011;66072;50.238;19.228;2023-01-28T09:13:04;12.00;;;6.70;;
77117;SDS011;66072;50.238;19.228;2023-01-28T09:15:33;12.70;;;7.50;;
77117;SDS011;66072;50.238;19.228;2023-01-28T09:18:02;13.10;;;7.20;;
77117;SDS011;66072;50.238;19.228;2023-01-28T09:20:30;14.90;;;8.20;;
77117;SDS011;66072;50.238;19.228;2023-01-28T09:22:58;14.60;;;8.00;;
77117;SDS011;66072;50.238;19.228;2023-01-28T09:25:27;12.90;;;7.00;;
77117;SDS011;66072;50.238;19.228;2023-01-28T09:27:55;15.10;;;8.00;;
77117;SDS011;66072;50.238;19.228;2023-01-28T09:30:24;12.80;;;7.40;;
77117;SDS011;66072;50.238;19.228;2023-01-28T09:32:52;13.50;;;6.60;;
77117;SDS011;66072;50.238;19.228;2023-01-28T09:35:21;17.50;;;8.70;;
77117;SDS011;66072;50.238;19.228;2023-01-28T09:37:49;10.30;;;6.40;;
77117;SDS011;66072;50.238;19.228;2023-01-28T09:40:19;13.80;;;6.80;;
77117;SDS011;66072;50.238;19.228;2023-01-28T09:45:39;14.70;;;7.40;;
77117;SDS011;66072;50.238;19.228;2023-01-28T09:48:12;10.40;;;6.40;;
77117;SDS011;66072;50.238;19.228;2023-01-28T09:50:44;13.40;;;7.60;;
77117;SDS011;66072;50.238;19.228;2023-01-28T09:55:52;11.10;;;4.90;;
77117;SDS011;66072;50.238;19.228;2023-01-28T09:58:22;11.00;;;6.40;;
77117;SDS011;66072;50.238;19.228;2023-01-28T10:11:44;11.70;;;6.70;;
77117;SDS011;66072;50.238;19.228;2023-01-28T10:17:25;16.70;;;8.00;;
77117;SDS011;66072;50.238;19.228;2023-01-28T10:20:12;16.60;;;7.10;;
77117;SDS011;66072;50.238;19.228;2023-01-28T10:22:56;12.20;;;6.90;;
77117;SDS011;66072;50.238;19.228;2023-01-28T10:25:37;15.80;;;7.70;;
77117;SDS011;66072;50.238;19.228;2023-01-28T10:28:10;12.80;;;7.70;;
77117;SDS011;66072;50.238;19.228;2023-01-28T10:30:45;10.30;;;6.20;;
77117;SDS011;66072;50.238;19.228;2023-01-28T10:35:54;16.00;;;7.70;;
77117;SDS011;66072;50.238;19.228;2023-01-28T10:38:23;12.50;;;6.80;;
77117;SDS011;66072;50.238;19.228;2023-01-28T10:40:54;14.70;;;7.60;;
77117;SDS011;66072;50.238;19.228;2023-01-28T10:43:29;14.10;;;7.40;;
77117;SDS011;66072;50.238;19.228;2023-01-28T10:46:20;16.90;;;8.10;;
77117;SDS011;66072;50.238;19.228;2023-01-28T10:51:49;14.30;;;7.50;;
77117;SDS011;66072;50.238;19.228;2023-01-28T10:54:17;12.20;;;6.70;;
77117;SDS011;66072;50.238;19.228;2023-01-28T10:56:59;12.70;;;7.80;;
77117;SDS011;66072;50.238;19.228;2023-01-28T10:59:31;14.10;;;7.40;;
77117;SDS011;66072;50.238;19.228;2023-01-28T11:02:01;13.00;;;7.20;;
77117;SDS011;66072;50.238;19.228;2023-01-28T11:04:32;16.30;;;8.40;;
77117;SDS011;66072;50.238;19.228;2023-01-28T11:07:06;15.20;;;7.40;;
77117;SDS011;66072;50.238;19.228;2023-01-28T11:09:45;14.80;;;7.40;;
77117;SDS011;66072;50.238;19.228;2023-01-28T11:12:21;14.70;;;7.70;;
77117;SDS011;66072;50.238;19.228;2023-01-28T11:17:28;14.70;;;7.80;;
77117;SDS011;66072;50.238;19.228;2023-01-28T11:19:59;13.20;;;7.30;;
77117;SDS011;66072;50.238;19.228;2023-01-28T11:22:38;15.40;;;9.20;;
77117;SDS011;66072;50.238;19.228;2023-01-28T11:25:29;15.30;;;8.10;;
77117;SDS011;66072;50.238;19.228;2023-01-28T11:28:01;13.80;;;7.50;;
77117;SDS011;66072;50.238;19.228;2023-01-28T11:30:32;18.00;;;8.90;;
77117;SDS011;66072;50.238;19.228;2023-01-28T11:35:38;10.80;;;7.10;;
77117;SDS011;66072;50.238;19.228;2023-01-28T11:38:16;15.20;;;7.70;;
77117;SDS011;66072;50.238;19.228;2023-01-28T11:40:53;15.20;;;7.40;;
77117;SDS011;66072;50.238;19.228;2023-01-28T11:43:22;14.30;;;7.20;;
77117;SDS011;66072;50.238;19.228;2023-01-28T11:57:44;15.60;;;8.20;;
77117;SDS011;66072;50.238;19.228;2023-01-28T12:00:39;13.60;;;7.70;;
77117;SDS011;66072;50.238;19.228;2023-01-28T12:11:37;15.30;;;7.70;;
77117;SDS011;66072;50.238;19.228;2023-01-28T12:14:19;13.60;;;7.40;;
77117;SDS011;66072;50.238;19.228;2023-01-28T12:23:16;14.80;;;8.30;;
77117;SDS011;66072;50.238;19.228;2023-01-28T12:34:24;14.40;;;8.30;;
77117;SDS011;66072;50.238;19.228;2023-01-28T12:43:01;16.90;;;8.60;;
77117;SDS011;66072;50.238;19.228;2023-01-28T12:45:39;12.60;;;7.90;;
77117;SDS011;66072;50.238;19.228;2023-01-28T12:48:21;16.00;;;8.10;;
77117;SDS011;66072;50.238;19.228;2023-01-28T12:51:14;14.40;;;6.70;;
77117;SDS011;66072;50.238;19.228;2023-01-28T12:53:49;14.90;;;8.40;;
77117;SDS011;66072;50.238;19.228;2023-01-28T13:07:22;16.80;;;8.80;;
77117;SDS011;66072;50.238;19.228;2023-01-28T13:10:04;15.90;;;7.70;;
77117;SDS011;66072;50.238;19.228;2023-01-28T13:12:39;18.60;;;9.10;;
77117;SDS011;66072;50.238;19.228;2023-01-28T13:15:11;19.10;;;8.50;;
77117;SDS011;66072;50.238;19.228;2023-01-28T13:17:55;17.50;;;9.10;;
77117;SDS011;66072;50.238;19.228;2023-01-28T13:20:28;19.30;;;9.10;;
77117;SDS011;66072;50.238;19.228;2023-01-28T13:23:02;15.60;;;8.30;;
77117;SDS011;66072;50.238;19.228;2023-01-28T13:25:35;17.20;;;9.30;;
77117;SDS011;66072;50.238;19.228;2023-01-28T13:28:24;17.40;;;10.00;;
77117;SDS011;66072;50.238;19.228;2023-01-28T13:31:04;17.20;;;10.00;;
77117;SDS011;66072;50.238;19.228;2023-01-28T13:33:38;17.90;;;10.10;;
77117;SDS011;66072;50.238;19.228;2023-01-28T13:36:16;19.80;;;9.90;;
77117;SDS011;66072;50.238;19.228;2023-01-28T13:44:18;22.60;;;11.30;;
77117;SDS011;66072;50.238;19.228;2023-01-28T13:46:46;19.60;;;10.20;;
77117;SDS011;66072;50.238;19.228;2023-01-28T13:49:15;23.70;;;12.60;;
77117;SDS011;66072;50.238;19.228;2023-01-28T13:51:55;24.30;;;13.20;;
77117;SDS011;66072;50.238;19.228;2023-01-28T13:54:27;23.10;;;11.40;;
77117;SDS011;66072;50.238;19.228;2023-01-28T14:10:12;27.60;;;13.00;;
77117;SDS011;66072;50.238;19.228;2023-01-28T14:18:40;28.00;;;13.70;;
77117;SDS011;66072;50.238;19.228;2023-01-28T14:21:11;21.90;;;11.00;;
77117;SDS011;66072;50.238;19.228;2023-01-28T14:23:50;26.60;;;14.30;;
77117;SDS011;66072;50.238;19.228;2023-01-28T14:26:35;26.10;;;13.10;;
77117;SDS011;66072;50.238;19.228;2023-01-28T14:31:41;20.80;;;9.70;;
77117;SDS011;66072;50.238;19.228;2023-01-28T14:36:49;25.60;;;13.70;;
77117;SDS011;66072;50.238;19.228;2023-01-28T14:39:19;25.70;;;12.90;;
77117;SDS011;66072;50.238;19.228;2023-01-28T14:41:53;25.70;;;12.10;;
77117;SDS011;66072;50.238;19.228;2023-01-28T14:44:29;27.20;;;13.50;;
77117;SDS011;66072;50.238;19.228;2023-01-28T14:47:46;20.50;;;11.60;;
77117;SDS011;66072;50.238;19.228;2023-01-28T14:50:05;27.80;;;12.70;;
77117;SDS011;66072;50.238;19.228;2023-01-28T14:58:49;24.70;;;11.30;;
77117;SDS011;66072;50.238;19.228;2023-01-28T15:01:24;26.30;;;12.40;;
77117;SDS011;66072;50.238;19.228;2023-01-28T15:03:56;25.90;;;13.50;;
77117;SDS011;66072;50.238;19.228;2023-01-28T15:06:28;25.90;;;12.00;;
77117;SDS011;66072;50.238;19.228;2023-01-28T15:09:05;30.40;;;14.50;;
77117;SDS011;66072;50.238;19.228;2023-01-28T15:11:35;25.90;;;12.80;;
77117;SDS011;66072;50.238;19.228;2023-01-28T15:14:10;33.00;;;15.40;;
77117;SDS011;66072;50.238;19.228;2023-01-28T15:16:45;30.40;;;14.00;;
77117;SDS011;66072;50.238;19.228;2023-01-28T15:19:15;25.90;;;13.60;;
77117;SDS011;66072;50.238;19.228;2023-01-28T15:21:44;27.80;;;13.10;;
77117;SDS011;66072;50.238;19.228;2023-01-28T15:24:12;30.90;;;14.60;;
77117;SDS011;66072;50.238;19.228;2023-01-28T15:26:45;29.50;;;13.70;;
77117;SDS011;66072;50.238;19.228;2023-01-28T15:29:23;30.00;;;14.70;;
77117;SDS011;66072;50.238;19.228;2023-01-28T15:31:58;27.60;;;13.90;;
77117;SDS011;66072;50.238;19.228;2023-01-28T15:34:27;25.10;;;14.20;;
77117;SDS011;66072;50.238;19.228;2023-01-28T15:36:55;24.90;;;12.50;;
77117;SDS011;66072;50.238;19.228;2023-01-28T15:39:24;31.40;;;14.50;;
77117;SDS011;66072;50.238;19.228;2023-01-28T15:44:26;31.50;;;14.60;;
77117;SDS011;66072;50.238;19.228;2023-01-28T15:47:00;25.90;;;13.70;;
77117;SDS011;66072;50.238;19.228;2023-01-28T15:49:31;27.70;;;13.10;;
77117;SDS011;66072;50.238;19.228;2023-01-28T15:52:01;30.30;;;14.50;;
77117;SDS011;66072;50.238;19.228;2023-01-28T15:54:30;30.90;;;14.50;;
77117;SDS011;66072;50.238;19.228;2023-01-28T15:57:07;35.30;;;15.90;;
77117;SDS011;66072;50.238;19.228;2023-01-28T16:00:11;28.20;;;14.00;;
77117;SDS011;66072;50.238;19.228;2023-01-28T16:02:41;32.10;;;14.20;;
77117;SDS011;66072;50.238;19.228;2023-01-28T16:05:28;26.80;;;12.50;;
77117;SDS011;66072;50.238;19.228;2023-01-28T16:08:01;27.20;;;13.40;;
77117;SDS011;66072;50.238;19.228;2023-01-28T16:10:33;29.20;;;13.40;;
77117;SDS011;66072;50.238;19.228;2023-01-28T16:13:05;29.40;;;14.70;;
77117;SDS011;66072;50.238;19.228;2023-01-28T16:15:46;26.90;;;13.00;;
77117;SDS011;66072;50.238;19.228;2023-01-28T16:18:28;31.10;;;14.20;;
77117;SDS011;66072;50.238;19.228;2023-01-28T16:21:04;28.60;;;14.80;;
77117;SDS011;66072;50.238;19.228;2023-01-28T16:23:37;32.80;;;14.70;;
77117;SDS011;66072;50.238;19.228;2023-01-28T16:26:19;28.20;;;14.50;;
77117;SDS011;66072;50.238;19.228;2023-01-28T16:28:48;28.30;;;14.70;;
77117;SDS011;66072;50.238;19.228;2023-01-28T16:31:16;31.80;;;14.90;;
77117;SDS011;66072;50.238;19.228;2023-01-28T16:33:44;28.50;;;13.80;;
77117;SDS011;66072;50.238;19.228;2023-01-28T16:36:13;35.40;;;16.20;;
77117;SDS011;66072;50.238;19.228;2023-01-28T16:38:42;33.40;;;16.10;;
77117;SDS011;66072;50.238;19.228;2023-01-28T16:41:14;35.40;;;17.30;;
77117;SDS011;66072;50.238;19.228;2023-01-28T16:43:55;30.40;;;15.20;;
77117;SDS011;66072;50.238;19.228;2023-01-28T16:46:24;29.20;;;15.10;;
77117;SDS011;66072;50.238;19.228;2023-01-28T16:48:53;32.60;;;15.00;;
77117;SDS011;66072;50.238;19.228;2023-01-28T16:51:21;34.30;;;14.90;;
77117;SDS011;66072;50.238;19.228;2023-01-28T16:53:49;27.00;;;15.70;;
77117;SDS011;66072;50.238;19.228;2023-01-28T16:56:18;28.60;;;15.40;;
77117;SDS011;66072;50.238;19.228;2023-01-28T16:59:09;32.60;;;16.30;;